createdAt,value
2019-05-30T00:00:36.912Z,15.40
2019-05-30T00:03:25.595Z,15.40
2019-05-30T00:06:13.220Z,15.40
2019-05-30T00:08:46.408Z,15.40
2019-05-30T00:11:26.288Z,15.30
2019-05-30T00:13:56.675Z,15.40
2019-05-30T00:16:30.632Z,15.30
2019-05-30T00:19:05.314Z,15.20
2019-05-30T00:21:52.996Z,15.20
2019-05-30T00:24:41.452Z,15.10
2019-05-30T00:27:29.370Z,15.20
2019-05-30T00:30:24.051Z,15.30
2019-05-30T00:32:43.455Z,15.30
2019-05-30T00:35:13.483Z,15.30
2019-05-30T00:37:43.876Z,15.40
2019-05-30T00:40:15.308Z,15.30
2019-05-30T00:43:06.303Z,15.40
2019-05-30T00:46:00.027Z,15.40
2019-05-30T00:48:45.932Z,15.30
2019-05-30T00:51:33.636Z,15.30
2019-05-30T00:54:13.985Z,15.30
2019-05-30T00:56:52.745Z,15.30
2019-05-30T00:59:38.440Z,15.30
2019-05-30T01:02:09.671Z,15.30
2019-05-30T01:04:51.258Z,15.30
2019-05-30T01:07:27.998Z,15.20
2019-05-30T01:10:00.989Z,15.20
2019-05-30T01:12:35.035Z,15.10
2019-05-30T01:15:13.192Z,15.10
2019-05-30T01:18:01.053Z,15.00
2019-05-30T01:20:47.515Z,15.10
2019-05-30T01:23:34.053Z,15.00
2019-05-30T01:26:21.907Z,15.00
2019-05-30T01:29:01.560Z,15.00
2019-05-30T01:31:32.333Z,15.00
2019-05-30T01:34:07.957Z,15.00
2019-05-30T01:36:51.298Z,15.10
2019-05-30T01:39:50.854Z,15.10
2019-05-30T01:42:27.751Z,15.10
2019-05-30T01:45:06.124Z,15.10
2019-05-30T01:47:49.458Z,15.10
2019-05-30T01:50:28.233Z,15.10
2019-05-30T01:54:02.629Z,15.10
2019-05-30T01:56:34.703Z,15.10
2019-05-30T01:59:11.023Z,15.10
2019-05-30T02:01:44.844Z,15.10
2019-05-30T02:04:21.043Z,15.10
2019-05-30T02:06:52.529Z,15.10
2019-05-30T02:10:01.172Z,15.10
2019-05-30T02:12:44.690Z,15.00
2019-05-30T02:15:18.303Z,15.00
2019-05-30T02:18:01.519Z,15.00
2019-05-30T02:20:53.406Z,14.90
2019-05-30T02:23:41.919Z,15.00
2019-05-30T02:26:32.701Z,15.00
2019-05-30T02:29:04.099Z,15.00
2019-05-30T02:31:38.895Z,15.00
2019-05-30T02:34:07.999Z,15.00
2019-05-30T02:41:09.995Z,14.90
2019-05-30T02:43:48.237Z,14.90
2019-05-30T02:46:20.067Z,14.90
2019-05-30T02:49:06.160Z,14.90
2019-05-30T02:51:50.699Z,14.90
2019-05-30T02:54:21.361Z,14.90
2019-05-30T02:56:53.031Z,14.90
2019-05-30T02:59:26.733Z,15.00
2019-05-30T03:02:01.960Z,15.00
2019-05-30T03:04:40.670Z,15.00
2019-05-30T03:08:20.246Z,15.00
2019-05-30T03:10:31.455Z,15.00
2019-05-30T03:13:24.237Z,15.00
2019-05-30T03:15:56.551Z,15.00
2019-05-30T03:18:33.561Z,15.00
2019-05-30T03:21:08.590Z,15.00
2019-05-30T03:23:38.790Z,15.00
2019-05-30T03:26:10.769Z,15.00
2019-05-30T03:28:45.782Z,15.10
2019-05-30T03:31:28.703Z,15.10
2019-05-30T03:33:58.240Z,15.20
2019-05-30T03:36:31.599Z,15.10
2019-05-30T03:39:07.633Z,15.10
2019-05-30T03:41:51.469Z,15.10
2019-05-30T03:44:21.501Z,15.00
2019-05-30T03:46:54.506Z,15.00
2019-05-30T03:49:30.448Z,15.00
2019-05-30T03:52:04.997Z,15.00
2019-05-30T03:54:40.427Z,15.00
2019-05-30T03:57:19.720Z,15.00
2019-05-30T04:00:00.072Z,15.00
2019-05-30T04:03:06.732Z,15.00
2019-05-30T04:05:45.750Z,15.00
2019-05-30T04:08:21.916Z,15.00
2019-05-30T04:11:19.794Z,14.90
2019-05-30T04:13:54.934Z,14.70
2019-05-30T04:16:25.587Z,14.40
2019-05-30T04:18:56.244Z,14.20
2019-05-30T04:21:31.160Z,14.20
2019-05-30T04:24:03.728Z,14.20
2019-05-30T04:26:33.887Z,14.20
2019-05-30T04:29:07.876Z,14.30
2019-05-30T04:31:40.655Z,14.40
2019-05-30T04:34:12.542Z,14.50
2019-05-30T04:36:44.003Z,14.50
2019-05-30T04:39:15.163Z,14.60
2019-05-30T04:41:46.111Z,14.70
2019-05-30T04:44:17.728Z,14.70
2019-05-30T04:46:48.072Z,14.70
2019-05-30T04:49:21.352Z,14.60
2019-05-30T04:51:50.310Z,14.70
2019-05-30T04:54:21.563Z,14.70
2019-05-30T04:56:52.226Z,14.70
2019-05-30T04:59:23.646Z,14.70
2019-05-30T05:01:54.003Z,14.70
2019-05-30T05:04:24.326Z,14.80
2019-05-30T05:06:54.530Z,14.80
2019-05-30T05:09:25.080Z,14.80
2019-05-30T05:11:55.569Z,14.80
2019-05-30T05:14:25.788Z,14.90
2019-05-30T05:16:56.264Z,14.90
2019-05-30T05:19:26.778Z,14.90
2019-05-30T05:21:56.968Z,15.00
2019-05-30T05:24:26.956Z,15.00
2019-05-30T05:26:57.239Z,15.00
2019-05-30T05:29:27.347Z,15.10
2019-05-30T05:31:57.677Z,15.10
2019-05-30T05:34:27.885Z,15.20
2019-05-30T05:36:57.855Z,15.30
2019-05-30T05:39:28.587Z,15.30
2019-05-30T05:41:59.581Z,15.30
2019-05-30T05:44:31.150Z,15.30
2019-05-30T05:47:02.258Z,15.40
2019-05-30T05:49:36.111Z,15.40
2019-05-30T05:52:12.304Z,15.60
2019-05-30T05:54:46.765Z,15.60
2019-05-30T05:57:24.999Z,15.60
2019-05-30T05:59:56.338Z,15.60
2019-05-30T06:02:28.814Z,15.70
2019-05-30T06:04:58.934Z,15.70
2019-05-30T06:07:31.395Z,15.80
2019-05-30T06:10:01.716Z,15.80
2019-05-30T06:12:33.359Z,15.90
2019-05-30T06:15:06.278Z,16.00
2019-05-30T06:17:36.480Z,16.00
2019-05-30T06:20:11.780Z,16.10
2019-05-30T06:22:43.827Z,16.10
2019-05-30T06:25:13.675Z,16.10
2019-05-30T06:27:49.985Z,16.20
2019-05-30T06:30:22.910Z,16.20
2019-05-30T06:32:54.291Z,16.30
2019-05-30T06:35:27.457Z,16.30
2019-05-30T06:38:01.448Z,16.30
2019-05-30T06:40:33.672Z,16.30
2019-05-30T06:43:11.557Z,16.40
2019-05-30T06:45:42.188Z,16.30
2019-05-30T06:48:13.449Z,16.40
2019-05-30T06:50:52.226Z,16.50
2019-05-30T06:53:23.268Z,16.50
2019-05-30T06:55:55.875Z,16.50
2019-05-30T06:58:45.839Z,16.60
2019-05-30T07:01:06.107Z,16.70
2019-05-30T07:03:39.761Z,16.80
2019-05-30T07:06:11.138Z,16.90
2019-05-30T07:08:44.496Z,17.00
2019-05-30T07:11:20.730Z,17.10
2019-05-30T07:14:03.145Z,17.10
2019-05-30T07:16:34.338Z,17.00
2019-05-30T07:19:06.272Z,17.00
2019-05-30T07:21:37.542Z,17.10
2019-05-30T07:24:07.535Z,17.20
2019-05-30T07:26:38.882Z,17.30
2019-05-30T07:29:10.598Z,17.30
2019-05-30T07:31:40.877Z,17.40
2019-05-30T07:34:10.900Z,17.30
2019-05-30T07:36:45.882Z,17.30
2019-05-30T07:39:16.094Z,17.50
2019-05-30T07:42:04.953Z,17.30
2019-05-30T07:44:20.691Z,17.20
2019-05-30T07:46:53.816Z,17.20
2019-05-30T07:49:28.230Z,17.20
2019-05-30T07:51:59.739Z,17.30
2019-05-30T07:54:35.167Z,17.30
2019-05-30T07:57:08.673Z,17.40
2019-05-30T07:59:41.306Z,17.60
2019-05-30T08:02:19.864Z,17.50
2019-05-30T08:04:52.026Z,17.60
2019-05-30T08:07:22.469Z,17.60
2019-05-30T08:09:53.166Z,17.60
2019-05-30T08:12:23.285Z,17.60
2019-05-30T08:15:05.919Z,17.50
2019-05-30T08:17:37.730Z,17.50
2019-05-30T08:20:34.008Z,17.50
2019-05-30T08:23:04.438Z,17.60
2019-05-30T08:25:36.582Z,17.80
2019-05-30T08:28:08.435Z,17.80
2019-05-30T08:30:38.802Z,17.80
2019-05-30T08:33:14.415Z,17.90
2019-05-30T08:36:05.692Z,18.10
2019-05-30T08:38:42.162Z,18.30
2019-05-30T08:41:12.799Z,18.40
2019-05-30T08:43:43.333Z,18.50
2019-05-30T08:46:17.908Z,18.50
2019-05-30T08:48:56.511Z,18.70
2019-05-30T08:51:58.321Z,19.00
2019-05-30T08:54:32.241Z,19.00
2019-05-30T08:57:07.439Z,19.30
2019-05-30T08:59:40.764Z,19.20
2019-05-30T09:02:18.117Z,19.20
2019-05-30T09:04:53.479Z,19.20
2019-05-30T09:07:27.664Z,19.30
2019-05-30T09:09:58.075Z,19.50
2019-05-30T09:12:33.353Z,19.70
2019-05-30T09:15:04.839Z,19.90
2019-05-30T09:17:35.382Z,20.00
2019-05-30T09:20:08.136Z,20.10
2019-05-30T09:22:47.335Z,20.00
2019-05-30T09:25:17.899Z,20.00
2019-05-30T09:27:59.330Z,20.00
2019-05-30T09:30:34.671Z,19.80
2019-05-30T09:33:23.860Z,19.90
2019-05-30T09:36:13.237Z,19.80
2019-05-30T09:38:38.856Z,19.80
2019-05-30T09:41:09.537Z,20.00
2019-05-30T09:43:42.903Z,19.80
2019-05-30T09:46:21.288Z,19.80
2019-05-30T09:48:54.590Z,19.90
2019-05-30T09:51:24.975Z,19.70
2019-05-30T09:54:17.094Z,19.70
2019-05-30T09:56:57.367Z,19.80
2019-05-30T09:59:29.367Z,19.90
2019-05-30T10:02:06.271Z,20.10
2019-05-30T10:04:39.470Z,19.90
2019-05-30T10:07:17.226Z,19.70
2019-05-30T10:09:51.255Z,19.60
2019-05-30T10:12:25.479Z,19.40
2019-05-30T10:15:02.511Z,19.40
2019-05-30T10:17:38.885Z,19.40
2019-05-30T10:20:11.875Z,19.40
2019-05-30T10:22:50.079Z,19.50
2019-05-30T10:25:33.258Z,19.60
2019-05-30T10:28:29.078Z,19.70
2019-05-30T10:31:00.447Z,19.80
2019-05-30T10:33:36.271Z,19.90
2019-05-30T10:36:06.870Z,19.90
2019-05-30T10:38:56.043Z,20.00
2019-05-30T10:41:26.760Z,20.10
2019-05-30T10:44:02.259Z,20.00
2019-05-30T10:46:34.971Z,20.00
2019-05-30T10:49:10.887Z,20.00
2019-05-30T10:51:57.150Z,20.10
2019-05-30T10:54:35.147Z,20.40
2019-05-30T10:57:15.492Z,20.60
2019-05-30T10:59:48.804Z,20.80
2019-05-30T11:02:23.993Z,20.90
2019-05-30T11:04:57.627Z,21.20
2019-05-30T11:07:53.021Z,21.30
2019-05-30T11:10:15.450Z,21.50
2019-05-30T11:13:05.644Z,21.50
2019-05-30T11:15:34.687Z,21.20
2019-05-30T11:18:08.156Z,21.20
2019-05-30T11:20:40.728Z,21.00
2019-05-30T11:23:11.426Z,20.70
2019-05-30T11:25:41.797Z,20.60
2019-05-30T11:28:23.049Z,20.50
2019-05-30T11:30:54.717Z,20.50
2019-05-30T11:33:28.308Z,20.70
2019-05-30T11:36:01.103Z,20.70
2019-05-30T11:38:36.353Z,20.60
2019-05-30T11:41:06.890Z,20.50
2019-05-30T11:43:37.813Z,20.60
2019-05-30T11:46:12.082Z,20.90
2019-05-30T11:48:44.511Z,21.10
2019-05-30T11:51:14.980Z,21.10
2019-05-30T11:53:47.928Z,20.80
2019-05-30T11:56:19.343Z,20.50
2019-05-30T11:58:53.914Z,20.40
2019-05-30T12:01:32.599Z,20.30
2019-05-30T12:04:03.293Z,20.20
2019-05-30T12:07:03.490Z,20.30
2019-05-30T12:09:52.814Z,20.30
2019-05-30T12:12:27.672Z,20.30
2019-05-30T12:15:05.175Z,20.30
2019-05-30T12:20:43.767Z,20.20
2019-05-30T12:23:17.692Z,20.30
2019-05-30T12:25:48.243Z,20.30
2019-05-30T12:28:23.013Z,20.30
2019-05-30T12:31:01.734Z,20.30
2019-05-30T12:33:47.440Z,20.30
2019-05-30T12:36:52.227Z,20.20
2019-05-30T12:39:41.855Z,20.20
2019-05-30T12:42:17.472Z,20.10
2019-05-30T12:44:52.912Z,20.30
2019-05-30T12:47:25.261Z,20.50
2019-05-30T12:50:01.829Z,20.40
2019-05-30T12:52:32.956Z,20.40
2019-05-30T12:55:08.893Z,20.30
2019-05-30T12:57:42.871Z,20.30
2019-05-30T13:00:25.014Z,20.20
2019-05-30T13:03:05.445Z,20.10
2019-05-30T13:05:42.847Z,20.10
2019-05-30T13:08:21.746Z,20.10
2019-05-30T13:10:57.390Z,20.20
2019-05-30T13:13:34.383Z,20.30
2019-05-30T13:16:11.260Z,20.40
2019-05-30T13:18:42.460Z,20.40
2019-05-30T13:21:21.954Z,20.40
2019-05-30T13:23:55.700Z,20.30
2019-05-30T13:26:27.148Z,20.30
2019-05-30T13:29:09.262Z,20.30
2019-05-30T13:31:42.373Z,20.40
2019-05-30T13:34:15.199Z,20.20
2019-05-30T13:36:50.438Z,19.90
2019-05-30T13:39:22.419Z,19.60
2019-05-30T13:41:59.622Z,19.50
2019-05-30T13:44:32.199Z,19.20
2019-05-30T13:47:07.102Z,19.10
2019-05-30T13:49:38.486Z,19.00
2019-05-30T13:52:10.416Z,19.10
2019-05-30T13:54:46.560Z,19.20
2019-05-30T13:57:29.594Z,19.30
2019-05-30T14:00:01.879Z,19.20
2019-05-30T14:02:32.915Z,19.30
2019-05-30T14:05:04.059Z,19.40
2019-05-30T14:07:50.572Z,19.40
2019-05-30T14:10:21.319Z,19.20
2019-05-30T14:12:56.077Z,19.20
2019-05-30T14:15:35.279Z,19.30
2019-05-30T14:18:07.134Z,19.20
2019-05-30T14:20:41.485Z,19.20
2019-05-30T14:23:22.017Z,19.20
2019-05-30T14:25:52.912Z,19.30
2019-05-30T14:28:27.560Z,19.40
2019-05-30T14:31:08.923Z,19.40
2019-05-30T14:33:39.407Z,19.40
2019-05-30T14:36:31.921Z,19.40
2019-05-30T14:39:17.036Z,19.40
2019-05-30T14:41:52.746Z,19.40
2019-05-30T14:44:25.871Z,19.50
2019-05-30T14:47:08.738Z,19.50
2019-05-30T14:49:41.412Z,19.60
2019-05-30T14:52:13.332Z,19.80
2019-05-30T14:54:43.616Z,19.90
2019-05-30T14:57:17.608Z,20.00
2019-05-30T15:00:11.289Z,20.30
2019-05-30T15:02:41.951Z,20.40
2019-05-30T15:05:15.588Z,20.50
2019-05-30T15:07:49.625Z,20.60
2019-05-30T15:10:23.067Z,20.70
2019-05-30T15:12:53.827Z,20.70
2019-05-30T15:15:27.119Z,20.90
2019-05-30T15:17:57.823Z,21.00
2019-05-30T15:20:30.799Z,20.90
2019-05-30T15:23:02.430Z,20.70
2019-05-30T15:25:32.956Z,20.80
2019-05-30T15:28:10.334Z,20.80
2019-05-30T15:31:06.738Z,20.80
2019-05-30T15:33:47.946Z,20.90
2019-05-30T15:36:24.487Z,21.30
2019-05-30T15:39:03.831Z,21.50
2019-05-30T15:41:35.860Z,21.50
2019-05-30T15:44:10.157Z,21.30
2019-05-30T15:46:42.066Z,21.40
2019-05-30T15:49:16.362Z,21.50
2019-05-30T15:51:47.298Z,21.30
2019-05-30T15:54:21.480Z,21.20
2019-05-30T15:56:54.199Z,21.20
2019-05-30T15:59:31.438Z,21.20
2019-05-30T16:02:02.273Z,21.10
2019-05-30T16:04:35.891Z,21.20
2019-05-30T16:07:06.775Z,21.10
2019-05-30T16:09:46.678Z,21.10
2019-05-30T16:12:19.304Z,21.10
2019-05-30T16:14:51.472Z,21.20
2019-05-30T16:17:27.493Z,21.20
2019-05-30T16:19:58.635Z,21.10
2019-05-30T16:22:29.320Z,21.10
2019-05-30T16:25:13.598Z,21.10
2019-05-30T16:27:47.787Z,21.10
2019-05-30T16:30:32.063Z,20.90
2019-05-30T16:33:09.916Z,21.00
2019-05-30T16:35:43.418Z,21.00
2019-05-30T16:38:14.111Z,21.00
2019-05-30T16:40:45.220Z,21.00
2019-05-30T16:43:37.777Z,21.10
2019-05-30T16:46:10.335Z,21.00
2019-05-30T16:48:44.648Z,20.90
2019-05-30T16:51:26.960Z,20.90
2019-05-30T16:54:08.325Z,21.00
2019-05-30T16:56:45.794Z,21.10
2019-05-30T16:59:19.042Z,21.10
2019-05-30T17:06:41.107Z,20.90
2019-05-30T17:09:15.172Z,21.00
2019-05-30T17:11:53.415Z,20.80
2019-05-30T17:14:30.278Z,20.80
2019-05-30T17:17:04.094Z,20.90
2019-05-30T17:19:46.963Z,20.90
2019-05-30T17:22:33.244Z,20.80
2019-05-30T17:25:11.171Z,20.90
2019-05-30T17:27:53.413Z,20.90
2019-05-30T17:30:36.387Z,20.90
2019-05-30T17:33:32.621Z,20.90
2019-05-30T17:36:24.337Z,20.90
2019-05-30T17:39:11.173Z,21.00
2019-05-30T17:41:56.175Z,21.00
2019-05-30T17:44:30.728Z,21.00
2019-05-30T17:47:03.170Z,20.90
2019-05-30T17:49:37.237Z,20.90
2019-05-30T17:52:08.847Z,20.90
2019-05-30T17:54:39.035Z,20.90
2019-05-30T17:57:13.248Z,21.00
2019-05-30T17:59:43.914Z,21.10
2019-05-30T18:02:20.233Z,21.20
2019-05-30T18:05:03.307Z,21.30
2019-05-30T18:07:34.675Z,21.20
2019-05-30T18:10:24.916Z,21.10
2019-05-30T18:12:57.282Z,21.10
2019-05-30T18:16:29.313Z,21.00
2019-05-30T18:19:13.855Z,20.90
2019-05-30T18:21:49.311Z,20.90
2019-05-30T18:24:19.847Z,20.90
2019-05-30T18:26:52.173Z,20.90
2019-05-30T18:29:30.208Z,20.80
2019-05-30T18:32:15.034Z,20.80
2019-05-30T18:34:49.768Z,20.90
2019-05-30T18:37:20.216Z,20.90
2019-05-30T18:39:51.251Z,20.90
2019-05-30T18:42:27.190Z,20.90
2019-05-30T18:44:57.420Z,21.00
2019-05-30T18:47:29.042Z,21.00
2019-05-30T18:50:04.192Z,21.00
2019-05-30T18:52:39.712Z,21.00
2019-05-30T18:55:09.897Z,20.80
2019-05-30T18:57:40.332Z,20.80
2019-05-30T19:00:18.031Z,20.70
2019-05-30T19:02:56.859Z,20.60
2019-05-30T19:05:28.482Z,20.50
2019-05-30T19:08:04.221Z,20.40
2019-05-30T19:10:37.654Z,20.40
2019-05-30T19:13:11.366Z,20.40
2019-05-30T19:15:45.902Z,20.40
2019-05-30T19:18:20.790Z,20.30
2019-05-30T19:21:06.983Z,20.20
2019-05-30T19:23:58.506Z,20.20
2019-05-30T19:26:34.719Z,20.10
2019-05-30T19:29:05.239Z,20.10
2019-05-30T19:31:36.834Z,20.00
2019-05-30T19:34:09.783Z,20.00
2019-05-30T19:36:43.837Z,20.00
2019-05-30T19:39:20.837Z,20.00
2019-05-30T19:42:27.207Z,19.90
2019-05-30T19:45:04.298Z,19.90
2019-05-30T19:47:59.429Z,20.00
2019-05-30T19:50:47.307Z,20.00
2019-05-30T19:53:30.841Z,20.00
2019-05-30T19:56:06.360Z,20.00
2019-05-30T19:58:59.111Z,20.00
2019-05-30T20:01:55.795Z,19.90
2019-05-30T20:04:46.941Z,19.90
2019-05-30T20:07:19.102Z,19.90
2019-05-30T20:10:00.982Z,19.90
2019-05-30T20:12:23.182Z,19.80
2019-05-30T20:14:59.908Z,19.90
2019-05-30T20:17:37.597Z,19.80
2019-05-30T20:20:12.248Z,19.80
2019-05-30T20:22:45.271Z,19.80
2019-05-30T20:25:19.438Z,19.70
2019-05-30T20:27:57.598Z,19.80
2019-05-30T20:30:41.166Z,19.70
2019-05-30T20:33:23.722Z,19.70
2019-05-30T20:36:16.231Z,19.60
2019-05-30T20:39:23.253Z,19.60
2019-05-30T20:42:18.327Z,19.60
2019-05-30T20:44:45.658Z,19.60
2019-05-30T20:47:35.360Z,19.60
2019-05-30T20:50:04.584Z,19.60
2019-05-30T20:52:40.344Z,19.50
2019-05-30T20:55:13.770Z,19.50
2019-05-30T20:57:58.205Z,19.40
2019-05-30T21:00:43.884Z,19.40
2019-05-30T21:03:17.575Z,19.40
2019-05-30T21:06:02.065Z,19.30
2019-05-30T21:08:39.269Z,19.20
2019-05-30T21:11:26.664Z,19.10
2019-05-30T21:14:27.723Z,19.00
2019-05-30T21:16:59.192Z,19.00
2019-05-30T21:19:32.263Z,18.90
2019-05-30T21:22:40.867Z,18.90
2019-05-30T21:25:15.332Z,18.80
2019-05-30T21:27:54.521Z,18.60
2019-05-30T21:30:26.224Z,18.60
2019-05-30T21:32:56.580Z,18.50
2019-05-30T21:35:28.172Z,18.40
2019-05-30T21:38:02.442Z,18.40
2019-05-30T21:40:42.365Z,18.30
2019-05-30T21:43:13.710Z,18.20
2019-05-30T21:45:46.922Z,18.10
2019-05-30T21:48:27.871Z,18.10
2019-05-30T21:51:21.701Z,18.10
2019-05-30T21:54:20.399Z,18.00
2019-05-30T21:57:05.240Z,18.00
2019-05-30T21:59:48.944Z,17.90
2019-05-30T22:02:19.833Z,17.90
2019-05-30T22:04:53.988Z,17.90
2019-05-30T22:07:24.372Z,17.80
2019-05-30T22:09:58.183Z,17.90
2019-05-30T22:12:30.703Z,17.80
2019-05-30T22:15:04.282Z,17.80
2019-05-30T22:17:49.943Z,17.70
2019-05-30T22:20:23.900Z,17.70
2019-05-30T22:23:04.417Z,17.60
2019-05-30T22:25:38.262Z,17.60
2019-05-30T22:28:11.922Z,17.50
2019-05-30T22:31:16.324Z,17.40
2019-05-30T22:33:50.747Z,17.50
2019-05-30T22:36:25.139Z,17.40
2019-05-30T22:39:02.023Z,17.40
2019-05-30T22:41:33.865Z,17.40
2019-05-30T22:44:05.725Z,17.40
2019-05-30T22:46:40.587Z,17.40
2019-05-30T22:49:12.158Z,17.30
2019-05-30T22:51:44.956Z,17.30
2019-05-30T22:54:16.373Z,17.30
2019-05-30T22:56:49.392Z,17.20
2019-05-30T22:59:22.031Z,17.20
2019-05-30T23:01:58.491Z,17.20
2019-05-30T23:04:28.574Z,17.10
2019-05-30T23:07:00.508Z,17.10
2019-05-30T23:09:37.921Z,17.00
2019-05-30T23:12:10.269Z,16.90
2019-05-30T23:14:41.112Z,16.90
2019-05-30T23:17:11.192Z,16.80
2019-05-30T23:19:41.441Z,16.80
2019-05-30T23:22:14.329Z,16.80
2019-05-30T23:24:58.450Z,16.70
2019-05-30T23:27:41.788Z,16.70
2019-05-30T23:30:24.618Z,16.70
2019-05-30T23:33:01.359Z,16.70
2019-05-30T23:35:42.705Z,16.60
2019-05-30T23:38:31.442Z,16.60
2019-05-30T23:41:01.828Z,16.60
2019-05-30T23:43:31.982Z,16.50
2019-05-30T23:46:05.890Z,16.50
2019-05-30T23:48:36.064Z,16.50
2019-05-30T23:51:06.768Z,16.50
2019-05-30T23:53:46.357Z,16.40
2019-05-30T23:56:16.954Z,16.40
2019-05-30T23:58:47.089Z,16.40
